createdAt,value
2019-03-29T00:00:58.220Z,8.20
2019-03-29T00:03:29.197Z,7.40
2019-03-29T00:05:59.985Z,10.53
2019-03-29T00:08:30.676Z,11.20
2019-03-29T00:11:01.313Z,10.73
2019-03-29T00:13:31.982Z,9.53
2019-03-29T00:16:02.816Z,11.43
2019-03-29T00:18:33.638Z,12.10
2019-03-29T00:21:04.543Z,13.00
2019-03-29T00:23:35.314Z,12.27
2019-03-29T00:26:06.321Z,13.53
2019-03-29T00:28:37.189Z,13.50
2019-03-29T00:31:07.995Z,12.13
2019-03-29T00:33:38.931Z,13.13
2019-03-29T00:36:09.599Z,14.73
2019-03-29T00:38:39.983Z,13.73
2019-03-29T00:41:10.718Z,13.40
2019-03-29T00:43:41.508Z,16.00
2019-03-29T00:46:12.390Z,12.10
2019-03-29T00:48:43.100Z,14.33
2019-03-29T00:51:13.797Z,12.83
2019-03-29T00:53:44.636Z,13.17
2019-03-29T00:56:15.455Z,16.03
2019-03-29T00:58:46.365Z,13.83
2019-03-29T01:01:17.507Z,14.20
2019-03-29T01:03:48.218Z,15.60
2019-03-29T01:06:19.997Z,16.43
2019-03-29T01:08:50.724Z,14.57
2019-03-29T01:11:21.462Z,18.80
2019-03-29T01:13:52.239Z,12.37
2019-03-29T01:16:23.027Z,17.10
2019-03-29T01:18:53.764Z,13.97
2019-03-29T01:21:24.543Z,15.97
2019-03-29T01:23:55.361Z,13.97
2019-03-29T01:26:27.045Z,17.67
2019-03-29T01:28:57.972Z,15.13
2019-03-29T01:31:28.754Z,17.30
2019-03-29T01:33:59.478Z,17.27
2019-03-29T01:36:30.185Z,16.30
2019-03-29T01:39:01.065Z,17.70
2019-03-29T01:41:31.813Z,17.00
2019-03-29T01:44:02.463Z,17.63
2019-03-29T01:46:33.170Z,18.87
2019-03-29T01:49:03.799Z,20.47
2019-03-29T01:51:34.602Z,21.17
2019-03-29T01:54:05.349Z,23.57
2019-03-29T01:56:35.996Z,21.13
2019-03-29T01:59:06.770Z,22.57
2019-03-29T02:01:37.434Z,21.50
2019-03-29T02:04:08.217Z,19.70
2019-03-29T02:06:39.286Z,23.67
2019-03-29T02:09:10.960Z,23.60
2019-03-29T02:11:41.760Z,24.17
2019-03-29T02:14:12.651Z,24.47
2019-03-29T02:16:43.499Z,26.17
2019-03-29T02:19:14.237Z,29.17
2019-03-29T02:21:44.990Z,29.67
2019-03-29T02:24:15.818Z,30.17
2019-03-29T02:26:46.602Z,32.33
2019-03-29T02:29:17.417Z,35.43
2019-03-29T02:31:47.808Z,31.67
2019-03-29T02:34:18.231Z,31.60
2019-03-29T02:36:48.687Z,35.20
2019-03-29T02:39:19.516Z,34.20
2019-03-29T02:41:50.347Z,34.20
2019-03-29T02:44:21.254Z,26.67
2019-03-29T02:46:53.516Z,31.50
2019-03-29T02:49:24.426Z,29.93
2019-03-29T02:51:55.242Z,28.40
2019-03-29T02:54:26.021Z,29.87
2019-03-29T02:56:56.811Z,28.57
2019-03-29T02:59:27.495Z,25.63
2019-03-29T03:01:58.222Z,28.73
2019-03-29T03:04:29.075Z,27.50
2019-03-29T03:06:59.797Z,25.40
2019-03-29T03:09:30.524Z,22.60
2019-03-29T03:12:02.169Z,20.70
2019-03-29T03:14:32.919Z,16.83
2019-03-29T03:17:03.652Z,14.67
2019-03-29T03:19:34.098Z,17.50
2019-03-29T03:22:04.521Z,19.07
2019-03-29T03:24:34.964Z,21.07
2019-03-29T03:27:05.430Z,19.00
2019-03-29T03:29:35.841Z,21.17
2019-03-29T03:32:06.629Z,21.93
2019-03-29T03:34:37.408Z,22.70
2019-03-29T03:37:08.243Z,22.97
2019-03-29T03:39:39.001Z,24.33
2019-03-29T03:42:09.833Z,27.50
2019-03-29T03:44:40.479Z,21.93
2019-03-29T03:47:11.139Z,20.07
2019-03-29T03:49:41.819Z,21.73
2019-03-29T03:52:12.578Z,21.83
2019-03-29T03:54:43.308Z,19.97
2019-03-29T03:57:14.369Z,22.17
2019-03-29T03:59:45.618Z,22.07
2019-03-29T04:02:16.327Z,27.73
2019-03-29T04:04:47.150Z,24.40
2019-03-29T04:07:17.902Z,25.23
2019-03-29T04:09:50.554Z,23.73
2019-03-29T04:12:21.186Z,23.23
2019-03-29T04:14:51.943Z,25.63
2019-03-29T04:17:22.587Z,27.83
2019-03-29T04:19:53.351Z,24.67
2019-03-29T04:22:24.183Z,23.10
2019-03-29T04:24:55.134Z,25.63
2019-03-29T04:27:25.964Z,21.63
2019-03-29T04:29:56.776Z,24.17
2019-03-29T04:32:27.501Z,23.27
2019-03-29T04:34:58.274Z,21.27
2019-03-29T04:37:29.049Z,28.93
2019-03-29T04:40:07.979Z,23.80
2019-03-29T04:42:32.322Z,24.50
2019-03-29T04:45:02.729Z,26.30
2019-03-29T04:47:33.327Z,26.17
2019-03-29T04:50:04.114Z,30.03
2019-03-29T04:52:34.766Z,27.33
2019-03-29T04:55:05.355Z,24.93
2019-03-29T04:57:35.954Z,28.63
2019-03-29T05:00:06.978Z,30.07
2019-03-29T05:02:37.606Z,32.83
2019-03-29T05:05:08.327Z,31.53
2019-03-29T05:07:38.979Z,41.93
2019-03-29T05:10:20.303Z,50.10
2019-03-29T05:12:42.347Z,34.43
2019-03-29T05:15:13.385Z,35.23
2019-03-29T05:17:44.065Z,28.90
2019-03-29T05:20:14.893Z,31.43
2019-03-29T05:22:45.644Z,31.03
2019-03-29T05:25:16.481Z,29.27
2019-03-29T05:27:47.354Z,31.73
2019-03-29T05:30:18.251Z,32.80
2019-03-29T05:32:48.976Z,31.87
2019-03-29T05:35:19.789Z,30.23
2019-03-29T05:37:50.441Z,32.00
2019-03-29T05:40:34.010Z,29.30
2019-03-29T05:42:53.482Z,26.93
2019-03-29T05:45:49.238Z,31.67
2019-03-29T05:48:24.822Z,32.03
2019-03-29T05:51:00.827Z,34.33
2019-03-29T05:53:42.179Z,35.60
2019-03-29T05:56:23.385Z,34.67
2019-03-29T05:58:58.188Z,38.03
2019-03-29T06:01:36.019Z,31.80
2019-03-29T06:04:08.170Z,31.20
2019-03-29T06:06:40.238Z,29.57
2019-03-29T06:09:10.998Z,32.50
2019-03-29T06:11:41.778Z,33.20
2019-03-29T06:14:12.465Z,32.13
2019-03-29T06:16:43.315Z,33.60
2019-03-29T06:19:15.091Z,32.00
2019-03-29T06:21:45.825Z,34.40
2019-03-29T06:24:16.618Z,36.60
2019-03-29T06:26:47.339Z,37.17
2019-03-29T06:29:18.582Z,32.33
2019-03-29T06:31:49.579Z,31.17
2019-03-29T06:34:20.449Z,35.73
2019-03-29T06:37:11.414Z,33.80
2019-03-29T06:39:43.735Z,32.47
2019-03-29T06:42:14.584Z,36.07
2019-03-29T06:44:45.429Z,34.60
2019-03-29T06:47:16.241Z,36.33
2019-03-29T06:49:47.126Z,36.23
2019-03-29T06:52:17.915Z,34.43
2019-03-29T06:54:48.713Z,36.63
2019-03-29T06:57:19.493Z,40.37
2019-03-29T06:59:50.275Z,33.43
2019-03-29T07:02:20.998Z,33.50
2019-03-29T07:04:51.804Z,34.47
2019-03-29T07:07:22.567Z,27.60
2019-03-29T07:09:53.239Z,31.67
2019-03-29T07:12:24.085Z,36.63
2019-03-29T07:14:54.885Z,33.10
2019-03-29T07:17:25.702Z,33.63
2019-03-29T07:19:59.438Z,30.00
2019-03-29T07:22:34.653Z,32.00
2019-03-29T07:25:04.584Z,30.83
2019-03-29T07:27:44.648Z,31.07
2019-03-29T07:30:08.467Z,29.07
2019-03-29T07:32:39.110Z,32.20
2019-03-29T07:35:09.855Z,31.00
2019-03-29T07:37:40.556Z,26.90
2019-03-29T07:40:11.544Z,29.03
2019-03-29T07:42:42.466Z,29.97
2019-03-29T07:45:13.614Z,26.23
2019-03-29T07:47:46.434Z,31.27
2019-03-29T07:50:19.149Z,28.23
2019-03-29T07:52:50.178Z,27.40
2019-03-29T07:55:29.806Z,30.37
2019-03-29T07:58:07.071Z,26.47
2019-03-29T08:00:48.459Z,28.83
2019-03-29T08:03:26.446Z,26.20
2019-03-29T08:06:02.836Z,28.50
2019-03-29T08:08:34.535Z,30.63
2019-03-29T08:11:25.459Z,28.43
2019-03-29T08:13:53.950Z,30.37
2019-03-29T08:16:44.560Z,30.53
2019-03-29T08:19:19.102Z,25.50
2019-03-29T08:22:00.229Z,26.60
2019-03-29T08:24:41.560Z,22.50
2019-03-29T08:27:17.831Z,23.03
2019-03-29T08:29:54.641Z,22.87
2019-03-29T08:32:34.509Z,22.60
2019-03-29T08:35:10.932Z,26.13
2019-03-29T08:37:48.921Z,24.60
2019-03-29T08:40:33.888Z,23.47
2019-03-29T08:43:17.715Z,24.30
2019-03-29T08:45:57.815Z,21.17
2019-03-29T08:48:36.074Z,22.23
2019-03-29T08:51:15.187Z,21.93
2019-03-29T08:53:51.239Z,20.70
2019-03-29T08:56:35.972Z,17.70
2019-03-29T08:59:21.459Z,15.67
2019-03-29T09:02:06.143Z,21.93
2019-03-29T09:04:43.219Z,16.40
2019-03-29T09:07:20.634Z,19.20
2019-03-29T09:10:02.521Z,22.53
2019-03-29T09:12:42.084Z,17.70
2019-03-29T09:15:23.553Z,15.70
2019-03-29T09:18:02.948Z,6.77
2019-03-29T09:20:42.508Z,17.40
2019-03-29T09:23:23.138Z,14.93
2019-03-29T09:25:56.457Z,16.80
2019-03-29T09:28:39.916Z,13.33
2019-03-29T09:31:30.344Z,14.47
2019-03-29T09:34:18.270Z,15.43
2019-03-29T09:37:04.657Z,15.50
2019-03-29T09:39:36.860Z,14.67
2019-03-29T09:42:28.073Z,12.07
2019-03-29T09:44:57.208Z,12.87
2019-03-29T09:47:45.673Z,15.13
2019-03-29T09:50:23.509Z,14.50
2019-03-29T09:53:04.773Z,12.30
2019-03-29T09:55:39.932Z,11.93
2019-03-29T09:58:10.801Z,13.93
2019-03-29T10:00:41.439Z,13.53
2019-03-29T10:03:12.310Z,11.40
2019-03-29T10:05:45.761Z,12.97
2019-03-29T10:08:16.860Z,17.30
2019-03-29T10:10:48.844Z,11.47
2019-03-29T10:13:19.600Z,28.53
2019-03-29T10:15:51.481Z,32.87
2019-03-29T10:18:22.549Z,13.87
2019-03-29T10:20:53.329Z,11.67
2019-03-29T10:23:23.984Z,12.33
2019-03-29T10:26:02.390Z,12.03
2019-03-29T10:28:36.952Z,14.10
2019-03-29T10:31:08.790Z,11.40
2019-03-29T10:33:41.736Z,12.20
2019-03-29T10:36:12.611Z,13.63
2019-03-29T10:38:43.422Z,16.00
2019-03-29T10:41:14.038Z,14.77
2019-03-29T10:43:44.510Z,14.07
2019-03-29T10:46:15.342Z,10.97
2019-03-29T10:48:46.174Z,13.80
2019-03-29T10:51:17.049Z,12.33
2019-03-29T10:53:47.822Z,11.77
2019-03-29T10:56:33.011Z,13.87
2019-03-29T10:58:50.969Z,13.40
2019-03-29T11:01:24.675Z,15.50
2019-03-29T11:03:54.013Z,11.70
2019-03-29T11:06:24.808Z,11.87
2019-03-29T11:08:55.564Z,12.80
2019-03-29T11:11:26.203Z,11.57
2019-03-29T11:13:57.162Z,12.00
2019-03-29T11:16:27.942Z,13.67
2019-03-29T11:18:58.770Z,14.93
2019-03-29T11:21:29.618Z,12.60
2019-03-29T11:24:00.386Z,12.80
2019-03-29T11:26:31.240Z,10.53
2019-03-29T11:29:03.063Z,10.97
2019-03-29T11:31:33.825Z,10.33
2019-03-29T11:34:04.782Z,15.83
2019-03-29T11:36:39.804Z,13.93
2019-03-29T11:39:13.030Z,10.93
2019-03-29T11:42:03.641Z,12.20
2019-03-29T11:44:35.250Z,12.70
2019-03-29T11:47:13.357Z,11.33
2019-03-29T11:49:54.086Z,11.03
2019-03-29T11:52:25.627Z,13.07
2019-03-29T11:54:59.102Z,13.13
2019-03-29T11:57:34.619Z,13.05
2019-03-29T12:00:07.413Z,10.72
2019-03-29T12:02:40.400Z,11.90
2019-03-29T12:05:13.066Z,14.43
2019-03-29T12:07:45.470Z,11.43
2019-03-29T12:10:16.855Z,10.10
2019-03-29T12:12:48.746Z,9.35
2019-03-29T12:15:20.257Z,10.48
2019-03-29T12:17:54.678Z,9.40
2019-03-29T12:20:27.660Z,10.53
2019-03-29T12:22:59.111Z,9.38
2019-03-29T12:25:31.929Z,9.53
2019-03-29T12:28:05.223Z,9.50
2019-03-29T12:30:39.998Z,9.05
2019-03-29T12:33:11.387Z,9.53
2019-03-29T12:35:43.674Z,9.80
2019-03-29T12:38:17.756Z,9.35
2019-03-29T12:40:50.340Z,9.50
2019-03-29T12:43:21.826Z,10.35
2019-03-29T12:45:56.126Z,9.43
2019-03-29T12:48:26.846Z,9.33
2019-03-29T12:50:58.007Z,9.85
2019-03-29T12:53:29.660Z,11.57
2019-03-29T12:56:00.753Z,9.80
2019-03-29T12:58:31.585Z,10.08
2019-03-29T13:01:02.403Z,9.70
2019-03-29T13:03:33.198Z,9.10
2019-03-29T13:06:03.931Z,10.48
2019-03-29T13:08:34.707Z,13.13
2019-03-29T13:11:05.610Z,10.80
2019-03-29T13:13:36.345Z,10.13
2019-03-29T13:16:07.224Z,10.50
2019-03-29T13:18:38.147Z,9.58
2019-03-29T13:21:08.893Z,9.83
2019-03-29T13:23:39.752Z,10.23
2019-03-29T13:26:10.522Z,10.43
2019-03-29T13:28:41.280Z,10.70
2019-03-29T13:31:13.495Z,10.00
2019-03-29T13:33:44.338Z,10.40
2019-03-29T13:36:15.116Z,11.35
2019-03-29T13:38:45.892Z,11.70
2019-03-29T13:41:16.561Z,10.90
2019-03-29T13:43:47.473Z,10.55
2019-03-29T13:46:18.249Z,11.22
2019-03-29T13:48:48.839Z,10.90
2019-03-29T13:51:19.643Z,10.85
2019-03-29T13:53:50.458Z,11.63
2019-03-29T13:56:21.294Z,10.82
2019-03-29T13:58:52.197Z,9.23
2019-03-29T14:01:22.939Z,10.98
2019-03-29T14:03:53.669Z,9.80
2019-03-29T14:06:24.449Z,10.32
2019-03-29T14:08:55.310Z,9.95
2019-03-29T14:11:26.382Z,10.78
2019-03-29T14:13:57.162Z,9.83
2019-03-29T14:16:27.850Z,13.38
2019-03-29T14:18:58.490Z,9.75
2019-03-29T14:21:29.251Z,10.90
2019-03-29T14:23:59.954Z,10.90
2019-03-29T14:26:30.565Z,10.78
2019-03-29T14:29:01.361Z,10.85
2019-03-29T14:31:31.753Z,11.30
2019-03-29T14:34:03.544Z,11.05
2019-03-29T14:36:34.394Z,10.53
2019-03-29T14:39:06.072Z,15.93
2019-03-29T14:41:38.130Z,10.13
2019-03-29T14:44:08.933Z,11.40
2019-03-29T14:46:39.723Z,10.18
2019-03-29T14:49:10.185Z,10.55
2019-03-29T14:51:40.876Z,11.00
2019-03-29T14:54:11.731Z,10.20
2019-03-29T14:56:42.594Z,11.22
2019-03-29T14:59:17.054Z,11.73
2019-03-29T15:01:48.519Z,10.70
2019-03-29T15:04:20.830Z,11.48
2019-03-29T15:06:51.546Z,11.20
2019-03-29T15:09:22.469Z,10.80
2019-03-29T15:11:52.877Z,9.58
2019-03-29T15:14:23.323Z,10.40
2019-03-29T15:17:12.479Z,10.78
2019-03-29T15:19:43.243Z,11.25
2019-03-29T15:22:13.658Z,12.35
2019-03-29T15:24:45.137Z,11.20
2019-03-29T15:27:15.591Z,10.35
2019-03-29T15:29:46.102Z,11.08
2019-03-29T15:32:16.568Z,11.43
2019-03-29T15:34:47.986Z,11.68
2019-03-29T15:37:18.371Z,12.95
2019-03-29T15:39:48.862Z,10.35
2019-03-29T15:42:20.651Z,11.97
2019-03-29T15:44:51.317Z,11.30
2019-03-29T15:47:21.761Z,14.53
2019-03-29T15:49:56.192Z,13.45
2019-03-29T15:52:27.379Z,15.53
2019-03-29T15:54:57.807Z,13.15
2019-03-29T15:57:29.845Z,12.07
2019-03-29T16:00:00.384Z,13.38
2019-03-29T16:02:31.274Z,12.30
2019-03-29T16:05:01.658Z,16.48
2019-03-29T16:07:34.997Z,12.35
2019-03-29T16:10:04.967Z,14.28
2019-03-29T16:12:35.576Z,11.55
2019-03-29T16:15:12.145Z,23.40
2019-03-29T16:17:43.204Z,19.70
2019-03-29T16:20:14.005Z,13.18
2019-03-29T16:22:44.748Z,15.30
2019-03-29T16:25:15.523Z,38.08
2019-03-29T16:27:46.306Z,12.15
2019-03-29T16:30:17.132Z,25.52
2019-03-29T16:32:47.934Z,62.30
2019-03-29T16:35:19.565Z,98.35
2019-03-29T16:37:57.132Z,67.10
2019-03-29T16:40:22.630Z,54.80
2019-03-29T16:42:53.395Z,136.90
2019-03-29T16:45:24.219Z,116.05
2019-03-29T16:47:54.994Z,111.08
2019-03-29T16:50:25.767Z,42.15
2019-03-29T16:52:56.619Z,29.52
2019-03-29T16:55:27.424Z,37.30
2019-03-29T16:57:58.085Z,41.65
2019-03-29T17:00:28.707Z,63.60
2019-03-29T17:02:59.398Z,37.53
2019-03-29T17:05:29.966Z,57.43
2019-03-29T17:08:00.598Z,39.47
2019-03-29T17:10:31.389Z,46.03
2019-03-29T17:13:02.084Z,48.33
2019-03-29T17:15:32.797Z,55.57
2019-03-29T17:18:03.482Z,131.77
2019-03-29T17:20:34.406Z,105.00
2019-03-29T17:23:05.263Z,90.83
2019-03-29T17:25:36.083Z,107.10
2019-03-29T17:28:06.873Z,171.43
2019-03-29T17:30:41.918Z,62.53
2019-03-29T17:33:12.665Z,53.50
2019-03-29T17:35:43.360Z,38.43
2019-03-29T17:38:15.075Z,36.83
2019-03-29T17:40:45.798Z,32.57
2019-03-29T17:43:16.643Z,28.57
2019-03-29T17:45:47.630Z,36.47
2019-03-29T17:48:18.325Z,31.10
2019-03-29T17:50:49.113Z,31.13
2019-03-29T17:53:19.888Z,26.03
2019-03-29T17:55:50.674Z,31.53
2019-03-29T17:58:21.450Z,28.13
2019-03-29T18:00:52.303Z,21.63
2019-03-29T18:03:23.098Z,21.83
2019-03-29T18:05:53.694Z,19.63
2019-03-29T18:08:24.496Z,20.87
2019-03-29T18:10:55.189Z,21.93
2019-03-29T18:13:25.805Z,20.27
2019-03-29T18:15:56.491Z,23.53
2019-03-29T18:18:27.328Z,21.83
2019-03-29T18:20:58.269Z,20.37
2019-03-29T18:23:29.105Z,19.67
2019-03-29T18:25:59.893Z,24.10
2019-03-29T18:28:30.607Z,20.20
2019-03-29T18:31:01.452Z,19.63
2019-03-29T18:33:32.370Z,21.10
2019-03-29T18:36:03.125Z,20.67
2019-03-29T18:38:36.108Z,27.67
2019-03-29T18:41:07.658Z,23.10
2019-03-29T18:43:38.274Z,22.83
2019-03-29T18:46:08.982Z,25.07
2019-03-29T18:48:39.823Z,22.50
2019-03-29T18:51:10.634Z,24.67
2019-03-29T18:53:41.501Z,21.63
2019-03-29T18:56:12.254Z,23.93
2019-03-29T18:58:43.007Z,20.13
2019-03-29T19:01:13.905Z,23.13
2019-03-29T19:03:44.779Z,19.50
2019-03-29T19:06:15.503Z,20.80
2019-03-29T19:08:46.290Z,20.70
2019-03-29T19:11:16.992Z,21.47
2019-03-29T19:13:51.180Z,17.30
2019-03-29T19:16:23.316Z,20.13
2019-03-29T19:19:09.171Z,19.80
2019-03-29T19:21:28.345Z,17.27
2019-03-29T19:23:59.097Z,18.77
2019-03-29T19:26:29.766Z,22.97
2019-03-29T19:29:00.497Z,20.60
2019-03-29T19:31:31.378Z,18.60
2019-03-29T19:34:02.027Z,28.90
2019-03-29T19:36:34.117Z,36.30
2019-03-29T19:39:05.958Z,35.63
2019-03-29T19:41:36.664Z,29.73
2019-03-29T19:44:07.459Z,21.63
2019-03-29T19:46:38.097Z,20.63
2019-03-29T19:49:08.715Z,19.50
2019-03-29T19:51:39.465Z,20.77
2019-03-29T19:54:10.076Z,18.83
2019-03-29T19:56:40.833Z,41.13
2019-03-29T19:59:11.404Z,45.87
2019-03-29T20:01:42.161Z,29.97
2019-03-29T20:04:12.912Z,33.43
2019-03-29T20:06:43.682Z,52.70
2019-03-29T20:09:14.579Z,46.80
2019-03-29T20:11:45.370Z,56.90
2019-03-29T20:14:16.161Z,72.47
2019-03-29T20:16:47.387Z,46.80
2019-03-29T20:19:20.077Z,39.03
2019-03-29T20:21:50.705Z,49.20
2019-03-29T20:24:21.344Z,30.27
2019-03-29T20:26:51.970Z,21.57
2019-03-29T20:29:22.682Z,19.73
2019-03-29T20:31:53.349Z,20.40
2019-03-29T20:34:24.104Z,21.53
2019-03-29T20:36:54.998Z,38.90
2019-03-29T20:39:25.770Z,46.40
2019-03-29T20:41:56.629Z,37.10
2019-03-29T20:44:27.458Z,48.30
2019-03-29T20:46:58.988Z,32.40
2019-03-29T20:49:29.863Z,29.13
2019-03-29T20:52:00.705Z,31.07
2019-03-29T20:54:31.492Z,29.17
2019-03-29T20:57:02.193Z,78.60
2019-03-29T20:59:33.013Z,69.30
2019-03-29T21:02:03.983Z,57.57
2019-03-29T21:04:34.794Z,68.90
2019-03-29T21:07:05.635Z,61.40
2019-03-29T21:09:36.420Z,53.30
2019-03-29T21:12:07.268Z,40.27
2019-03-29T21:14:38.117Z,32.83
2019-03-29T21:17:08.887Z,32.53
2019-03-29T21:19:39.624Z,29.77
2019-03-29T21:22:10.387Z,20.17
2019-03-29T21:24:41.186Z,17.17
2019-03-29T21:27:11.919Z,16.43
2019-03-29T21:29:42.764Z,16.40
2019-03-29T21:32:13.506Z,16.80
2019-03-29T21:34:44.234Z,18.87
2019-03-29T21:37:15.068Z,17.07
2019-03-29T21:39:45.800Z,18.33
2019-03-29T21:42:16.506Z,18.30
2019-03-29T21:44:47.228Z,16.23
2019-03-29T21:47:18.050Z,19.57
2019-03-29T21:49:49.775Z,19.93
2019-03-29T21:52:20.535Z,20.37
2019-03-29T21:54:51.213Z,23.13
2019-03-29T21:57:21.865Z,21.47
2019-03-29T21:59:52.634Z,20.97
2019-03-29T22:02:23.398Z,16.90
2019-03-29T22:04:54.038Z,18.13
2019-03-29T22:07:24.739Z,19.70
2019-03-29T22:09:55.546Z,17.47
2019-03-29T22:12:26.390Z,16.77
2019-03-29T22:14:57.285Z,16.03
2019-03-29T22:17:28.036Z,14.63
2019-03-29T22:19:58.753Z,16.00
2019-03-29T22:22:29.547Z,16.53
2019-03-29T22:25:00.321Z,16.30
2019-03-29T22:27:31.064Z,16.17
2019-03-29T22:30:01.847Z,16.47
2019-03-29T22:32:32.609Z,19.20
2019-03-29T22:35:03.352Z,21.93
2019-03-29T22:37:34.127Z,31.60
2019-03-29T22:40:05.547Z,30.77
2019-03-29T22:42:36.122Z,43.40
2019-03-29T22:45:08.841Z,37.30
2019-03-29T22:47:39.668Z,36.30
2019-03-29T22:50:10.919Z,33.70
2019-03-29T22:52:42.657Z,19.07
2019-03-29T22:55:13.622Z,26.03
2019-03-29T22:57:44.343Z,19.57
2019-03-29T23:00:26.249Z,15.70
2019-03-29T23:02:57.159Z,14.27
2019-03-29T23:05:27.914Z,20.37
2019-03-29T23:07:58.718Z,17.47
2019-03-29T23:10:29.486Z,16.30
2019-03-29T23:13:00.440Z,15.20
2019-03-29T23:15:31.220Z,16.33
2019-03-29T23:18:01.895Z,18.37
2019-03-29T23:20:36.431Z,17.97
2019-03-29T23:23:07.293Z,18.33
2019-03-29T23:25:38.098Z,14.30
2019-03-29T23:28:09.233Z,18.13
2019-03-29T23:30:40.058Z,15.80
2019-03-29T23:33:18.158Z,19.87
2019-03-29T23:35:48.919Z,28.57
2019-03-29T23:38:19.738Z,28.70
2019-03-29T23:40:50.427Z,27.87
2019-03-29T23:43:21.288Z,28.60
2019-03-29T23:45:52.305Z,23.33
2019-03-29T23:48:23.155Z,25.27
2019-03-29T23:50:53.817Z,41.60
2019-03-29T23:53:25.472Z,44.70
2019-03-29T23:55:56.300Z,43.23
2019-03-29T23:58:27.053Z,45.13
